Time;durP1;ratioP1;P1;durP2;ratioP2;P2;SDS_P1;SDS_P2;PMS_P1;PMS_P2;Temp;Humidity;BMP_temperature;BMP_pressure;BME280_temperature;BME280_humidity;BME280_pressure;Samples;Min_cycle;Max_cycle;Signal;HPM_P1;HPM_P2
2021/12/12 00:00:31;;;;;;;84.13;32.22;;;;;;;-7.31;85.83;101481.16;5088188;28;20055;-58
2021/12/12 00:03:03;;;;;;;183.48;52.38;;;;;;;-7.37;85.81;101484.84;5087378;28;20059;-59
2021/12/12 00:05:38;;;;;;;120.78;38.80;;;;;;;-7.42;86.31;101487.03;5100878;28;20047;-59
2021/12/12 00:08:06;;;;;;;173.68;54.63;;;;;;;-7.40;86.48;101489.66;5094708;28;20079;-60
2021/12/12 00:10:36;;;;;;;178.98;55.72;;;;;;;-7.36;86.81;101486.59;5091004;28;20110;-59
2021/12/12 00:13:09;;;;;;;218.82;63.72;;;;;;;-7.34;87.05;101480.03;5090841;28;20036;-59
2021/12/12 00:15:37;;;;;;;159.13;46.58;;;;;;;-7.31;87.27;101482.78;5089919;28;20058;-60
2021/12/12 00:18:05;;;;;;;173.05;51.00;;;;;;;-7.26;86.93;101484.03;5089949;28;20052;-59
2021/12/12 00:20:36;;;;;;;167.95;53.03;;;;;;;-7.21;87.40;101482.72;5096915;28;20044;-59
2021/12/12 00:23:04;;;;;;;99.65;33.90;;;;;;;-7.21;87.07;101477.69;5094946;28;20059;-59
2021/12/12 00:25:35;;;;;;;103.43;38.58;;;;;;;-7.19;86.83;101486.25;5087441;28;20044;-58
2021/12/12 00:28:03;;;;;;;101.43;37.28;;;;;;;-7.23;86.72;101489.31;5088905;28;20056;-59
2021/12/12 00:30:31;;;;;;;151.43;57.92;;;;;;;-7.28;86.35;101495.66;5086751;28;20093;-59
2021/12/12 00:32:58;;;;;;;109.47;46.42;;;;;;;-7.40;85.92;101492.19;5086332;28;20508;-58
2021/12/12 00:35:25;;;;;;;120.10;48.03;;;;;;;-7.51;85.50;101487.97;5087981;28;20052;-58
2021/12/12 00:37:59;;;;;;;110.65;44.33;;;;;;;-7.54;86.63;101490.25;5086718;28;20492;-59
2021/12/12 00:40:31;;;;;;;109.65;42.28;;;;;;;-7.59;86.79;101494.09;5088225;28;20060;-58
2021/12/12 00:43:01;;;;;;;130.20;50.58;;;;;;;-7.61;86.71;101495.59;5085567;28;20044;-59
2021/12/12 00:45:29;;;;;;;96.78;40.28;;;;;;;-7.66;86.46;101511.25;5088771;28;20150;-58
2021/12/12 00:47:57;;;;;;;110.78;39.45;;;;;;;-7.70;86.37;101506.72;5090240;28;20039;-59
2021/12/12 00:50:28;;;;;;;92.40;36.92;;;;;;;-7.74;86.30;101517.31;5087598;28;20044;-59
2021/12/12 00:52:57;;;;;;;88.72;36.03;;;;;;;-7.72;86.71;101515.81;5087830;28;20036;-59
2021/12/12 00:55:25;;;;;;;95.60;34.65;;;;;;;-7.74;86.57;101512.28;5087571;28;20062;-59
2021/12/12 00:57:53;;;;;;;98.15;39.22;;;;;;;-7.73;86.49;101519.09;5087921;28;20169;-58
2021/12/12 01:00:24;;;;;;;99.57;37.70;;;;;;;-7.75;87.09;101515.56;5087321;28;20096;-58
2021/12/12 01:02:52;;;;;;;99.22;38.05;;;;;;;-7.77;86.54;101522.13;5085660;28;20039;-59
2021/12/12 01:05:20;;;;;;;103.65;38.10;;;;;;;-7.77;86.83;101534.72;5092430;28;20052;-57
2021/12/12 01:07:49;;;;;;;96.95;39.00;;;;;;;-7.76;87.16;101523.88;5087227;27;20056;-59
2021/12/12 01:10:23;;;;;;;89.70;37.10;;;;;;;-7.76;86.35;101533.97;5087296;28;20083;-58
2021/12/12 01:12:51;;;;;;;102.40;39.42;;;;;;;-7.73;86.67;101526.63;5095608;28;20047;-58
2021/12/12 01:15:26;;;;;;;119.85;46.22;;;;;;;-7.74;86.41;101527.41;5087353;28;20043;-59
2021/12/12 01:17:58;;;;;;;124.70;45.83;;;;;;;-7.74;87.32;101532.44;5083593;28;20523;-59
2021/12/12 01:20:32;;;;;;;117.57;44.85;;;;;;;-7.76;87.13;101528.91;5087488;28;20059;-58
2021/12/12 01:23:04;;;;;;;125.47;46.97;;;;;;;-7.72;87.20;101530.03;5092307;28;20093;-59
2021/12/12 01:25:36;;;;;;;123.72;44.35;;;;;;;-7.69;87.17;101528.63;5087590;28;20054;-58
2021/12/12 01:28:05;;;;;;;117.10;41.53;;;;;;;-7.67;87.60;101534.66;5087851;28;20044;-58
2021/12/12 01:30:33;;;;;;;119.15;43.00;;;;;;;-7.65;87.77;101535.66;5095777;28;20139;-58
2021/12/12 01:33:00;;;;;;;116.50;43.30;;;;;;;-7.60;87.53;101535.13;5084944;28;20959;-57
2021/12/12 01:35:28;;;;;;;131.60;46.40;;;;;;;-7.56;88.43;101538.00;5086616;28;20537;-58
2021/12/12 01:40:55;;;;;;;115.82;40.38;;;;;;;-7.52;88.84;101534.94;5086092;28;20048;-59
2021/12/12 01:43:28;;;;;;;101.65;38.83;;;;;;;-7.47;89.02;101535.28;5086233;28;20051;-58
2021/12/12 01:46:00;;;;;;;88.53;31.88;;;;;;;-7.40;89.22;101535.00;5086778;28;20494;-58
2021/12/12 01:48:32;;;;;;;108.38;37.30;;;;;;;-7.32;89.29;101538.97;5086712;28;20071;-58
2021/12/12 01:51:02;;;;;;;100.75;36.38;;;;;;;-7.26;89.30;101529.38;5085813;28;20055;-58
2021/12/12 01:53:33;;;;;;;78.95;31.88;;;;;;;-7.24;89.10;101522.81;5087463;28;20051;-58
2021/12/12 01:56:06;;;;;;;79.65;30.13;;;;;;;-7.19;89.29;101521.53;5086704;28;20052;-57
2021/12/12 01:58:35;;;;;;;81.78;31.05;;;;;;;-7.15;89.28;101523.50;5085928;28;20048;-58
2021/12/12 02:01:05;;;;;;;86.97;33.97;;;;;;;-7.11;88.93;101519.56;5089624;28;20395;-59
2021/12/12 02:03:34;;;;;;;87.18;30.92;;;;;;;-7.14;88.28;101525.25;5084935;28;20043;-58
2021/12/12 02:06:06;;;;;;;79.15;30.50;;;;;;;-7.14;88.74;101520.22;5084284;28;20044;-59
2021/12/12 02:08:34;;;;;;;79.38;31.25;;;;;;;-7.16;88.49;101521.75;5089025;28;20060;-58
2021/12/12 02:11:07;;;;;;;93.10;33.53;;;;;;;-7.20;88.42;101527.31;5087980;28;20048;-59
2021/12/12 02:13:40;;;;;;;96.90;42.03;;;;;;;-7.23;88.53;101524.56;5091776;28;20048;-59
2021/12/12 02:16:08;;;;;;;75.07;30.23;;;;;;;-7.24;88.28;101522.81;5088712;28;20149;-58
2021/12/12 02:18:39;;;;;;;99.30;35.13;;;;;;;-7.23;87.71;101518.66;5089543;28;20048;-59
2021/12/12 02:21:14;;;;;;;81.90;31.05;;;;;;;-7.25;87.90;101531.13;5084074;28;20048;-59
2021/12/12 02:24:13;;;;;;;110.00;39.17;;;;;;;-7.23;88.40;101529.63;5085968;28;20423;-59
2021/12/12 02:35:20;;;;;;;69.78;28.98;;;;;;;-7.23;88.65;101539.69;5084453;28;20055;-59
2021/12/12 02:37:48;;;;;;;64.25;25.73;;;;;;;-7.17;88.37;101540.16;5083773;28;20071;-59
2021/12/12 02:40:26;;;;;;;89.82;31.30;;;;;;;-7.11;88.76;101550.69;5089030;28;20059;-59
2021/12/12 02:42:54;;;;;;;131.70;50.72;;;;;;;-7.07;88.96;101556.84;5083700;28;20043;-57
2021/12/12 02:45:23;;;;;;;107.93;36.30;;;;;;;-7.02;88.61;101556.41;5086944;28;20044;-59
2021/12/12 02:47:57;;;;;;;88.30;31.58;;;;;;;-6.96;88.58;101560.16;5088890;28;20063;-59
2021/12/12 02:50:29;;;;;;;69.88;26.92;;;;;;;-6.91;88.79;101568.94;5084257;28;20094;-59
2021/12/12 02:53:04;;;;;;;72.78;27.52;;;;;;;-6.89;89.01;101572.44;5092354;28;20043;-59
2021/12/12 02:55:36;;;;;;;87.68;31.60;;;;;;;-6.91;88.93;101564.75;5084216;28;20040;-59
2021/12/12 02:58:05;;;;;;;96.65;37.35;;;;;;;-6.88;88.91;101569.16;5094479;28;20039;-58
2021/12/12 03:00:36;;;;;;;86.20;32.63;;;;;;;-6.87;88.64;101571.78;5085231;28;20782;-59
2021/12/12 03:03:03;;;;;;;87.70;36.80;;;;;;;-6.83;88.98;101567.84;5084000;28;20067;-59
2021/12/12 03:05:38;;;;;;;93.45;40.65;;;;;;;-6.81;88.73;101561.28;5084840;28;20048;-59
2021/12/12 03:08:05;;;;;;;91.35;35.50;;;;;;;-6.77;89.09;101570.81;5086197;28;20047;-59
2021/12/12 03:10:37;;;;;;;82.68;30.95;;;;;;;-6.73;88.83;101565.28;5096168;28;20044;-59
2021/12/12 03:13:06;;;;;;;68.72;25.58;;;;;;;-6.66;88.87;101567.47;5085416;28;20043;-59
2021/12/12 03:15:38;;;;;;;69.82;23.77;;;;;;;-6.59;89.01;101568.81;5089737;28;20052;-58
2021/12/12 03:18:08;;;;;;;68.40;24.45;;;;;;;-6.54;89.03;101572.53;5087456;28;20048;-59
2021/12/12 03:20:38;;;;;;;55.10;24.02;;;;;;;-6.49;88.98;101572.09;5088303;28;20052;-59
2021/12/12 03:23:09;;;;;;;66.75;25.42;;;;;;;-6.43;89.07;101582.63;5087538;28;20071;-59
2021/12/12 03:25:40;;;;;;;54.83;23.35;;;;;;;-6.33;89.00;101588.34;5088379;28;20047;-58
2021/12/12 03:28:09;;;;;;;69.32;25.50;;;;;;;-6.33;88.73;101588.34;5088912;28;20051;-59
2021/12/12 03:30:38;;;;;;;76.13;28.90;;;;;;;-6.31;88.82;101581.75;5086766;28;20134;-58
2021/12/12 03:33:06;;;;;;;69.10;23.73;;;;;;;-6.26;89.14;101590.53;5086137;28;20036;-58
2021/12/12 03:35:34;;;;;;;55.03;23.52;;;;;;;-6.21;89.09;101595.19;5087762;28;20075;-60
2021/12/12 03:38:01;;;;;;;71.50;26.08;;;;;;;-6.16;89.17;101587.94;5086406;28;20048;-58
2021/12/12 03:40:32;;;;;;;69.05;25.30;;;;;;;-6.13;89.17;101585.63;5087172;28;20051;-59
2021/12/12 03:43:03;;;;;;;61.67;24.23;;;;;;;-6.12;88.50;101588.28;5085748;28;20040;-59
2021/12/12 03:45:31;;;;;;;62.50;23.80;;;;;;;-6.13;88.31;101584.00;5087526;28;20052;-59
2021/12/12 03:48:07;;;;;;;65.88;25.33;;;;;;;-6.13;87.96;101583.13;5090724;28;20056;-59
2021/12/12 03:50:37;;;;;;;65.88;28.65;;;;;;;-6.15;88.01;101589.69;5090758;28;20130;-59
2021/12/12 03:53:04;;;;;;;121.95;47.67;;;;;;;-6.15;88.09;101590.56;5088570;28;20540;-58
2021/12/12 03:55:34;;;;;;;76.68;31.30;;;;;;;-6.15;88.07;101584.66;5098449;28;20047;-58
2021/12/12 03:58:08;;;;;;;61.90;23.50;;;;;;;-6.16;88.02;101582.91;5089625;28;20047;-58
2021/12/12 04:00:39;;;;;;;67.97;24.77;;;;;;;-6.17;87.93;101576.97;5088293;28;20476;-58
2021/12/12 04:03:08;;;;;;;82.35;30.83;;;;;;;-6.16;88.25;101582.91;5095088;28;20054;-58
2021/12/12 04:05:36;;;;;;;55.35;20.58;;;;;;;-6.15;88.18;101585.53;5087065;28;20044;-59
2021/12/12 04:08:04;;;;;;;60.20;23.60;;;;;;;-6.13;88.45;101589.03;5086467;28;20058;-60
2021/12/12 04:10:32;;;;;;;63.75;25.20;;;;;;;-6.07;88.63;101588.59;5086706;28;20070;-58
2021/12/12 04:13:00;;;;;;;70.68;25.02;;;;;;;-6.01;88.74;101586.50;5087647;28;20052;-58
2021/12/12 04:15:29;;;;;;;74.30;26.05;;;;;;;-5.94;89.03;101582.78;5091674;28;20044;-58
2021/12/12 04:17:56;;;;;;;65.13;24.63;;;;;;;-5.91;88.95;101577.94;5087824;28;20134;-60
2021/12/12 04:20:27;;;;;;;68.47;25.55;;;;;;;-5.87;88.95;101588.31;5096628;28;20472;-60
2021/12/12 04:22:56;;;;;;;71.93;25.08;;;;;;;-5.81;89.14;101588.75;5090292;28;20411;-58
2021/12/12 04:25:23;;;;;;;70.28;29.48;;;;;;;-5.75;89.29;101584.13;5089116;28;20424;-58
2021/12/12 04:27:53;;;;;;;83.65;27.75;;;;;;;-5.68;89.40;101589.66;5086944;28;20514;-59
2021/12/12 04:30:23;;;;;;;65.85;24.20;;;;;;;-5.65;89.43;101592.38;5089450;27;20051;-57
2021/12/12 04:32:53;;;;;;;64.00;24.75;;;;;;;-5.61;89.72;101590.19;5093510;28;20136;-58
2021/12/12 04:35:25;;;;;;;70.53;29.98;;;;;;;-5.56;89.67;101590.50;5087827;28;20056;-59
2021/12/12 04:37:52;;;;;;;57.83;24.75;;;;;;;-5.52;89.92;101577.31;5088102;28;20105;-58
2021/12/12 04:40:22;;;;;;;62.50;26.67;;;;;;;-5.49;89.85;101585.09;5087006;28;20052;-57
2021/12/12 04:42:51;;;;;;;71.43;27.63;;;;;;;-5.46;89.83;101585.31;5087700;28;20055;-58
2021/12/12 04:45:26;;;;;;;53.65;21.52;;;;;;;-5.47;89.78;101586.06;5088988;28;20059;-59
2021/12/12 04:50:53;;;;;;;54.08;22.65;;;;;;;-5.48;89.50;101589.38;5088920;28;20063;-57
2021/12/12 04:53:26;;;;;;;54.95;22.33;;;;;;;-5.54;89.39;101594.00;5087406;28;20093;-58
2021/12/12 04:55:59;;;;;;;56.17;22.75;;;;;;;-5.62;89.41;101595.13;5086326;28;20439;-59
2021/12/12 04:58:36;;;;;;;56.70;22.13;;;;;;;-5.72;89.44;101588.56;5088076;28;20062;-57
2021/12/12 05:01:08;;;;;;;55.13;21.95;;;;;;;-5.77;89.60;101595.78;5087855;28;20052;-58
2021/12/12 05:03:47;;;;;;;54.42;22.63;;;;;;;-5.81;89.78;101603.91;5088358;28;20052;-59
2021/12/12 05:06:20;;;;;;;48.22;21.15;;;;;;;-5.85;90.02;101596.88;5088873;28;20063;-58
2021/12/12 05:08:53;;;;;;;57.75;21.10;;;;;;;-5.81;90.20;101608.97;5086819;28;20051;-58
2021/12/12 05:11:26;;;;;;;56.88;21.88;;;;;;;-5.76;90.36;101615.22;5088439;28;20101;-58
2021/12/12 05:13:57;;;;;;;61.38;22.60;;;;;;;-5.74;90.40;101618.72;5091143;28;20044;-59
2021/12/12 05:16:29;;;;;;;51.75;22.63;;;;;;;-5.70;90.49;101611.38;5085582;28;20048;-58
2021/12/12 05:19:05;;;;;;;57.63;24.45;;;;;;;-5.67;90.50;101616.66;5086310;28;20137;-59
2021/12/12 05:21:37;;;;;;;59.42;22.17;;;;;;;-5.62;90.51;101610.28;5087115;28;20423;-59
2021/12/12 05:24:09;;;;;;;56.42;22.10;;;;;;;-5.60;90.44;101617.19;5089705;28;20048;-59
2021/12/12 05:26:40;;;;;;;55.05;22.20;;;;;;;-5.57;90.32;101624.97;5084351;28;21988;-59
2021/12/12 05:29:13;;;;;;;50.60;21.08;;;;;;;-5.57;90.32;101614.88;5087526;28;20464;-59
2021/12/12 05:31:45;;;;;;;54.15;21.13;;;;;;;-5.54;90.28;101620.16;5087785;28;20047;-58
2021/12/12 05:34:15;;;;;;;62.20;21.88;;;;;;;-5.50;90.16;101631.34;5087830;28;20469;-59
2021/12/12 05:36:43;;;;;;;59.58;22.15;;;;;;;-5.48;90.26;101629.78;5087935;28;22057;-59
2021/12/12 05:39:11;;;;;;;62.20;23.52;;;;;;;-5.50;90.29;101631.34;5089770;28;20060;-59
2021/12/12 05:41:38;;;;;;;58.80;23.67;;;;;;;-5.48;90.37;101640.78;5085982;28;20295;-60
2021/12/12 05:44:07;;;;;;;64.00;25.25;;;;;;;-5.49;90.31;101635.63;5083031;28;20044;-59
2021/12/12 05:46:34;;;;;;;54.88;22.33;;;;;;;-5.48;90.34;101632.31;5086728;28;20043;-59
2021/12/12 05:49:04;;;;;;;59.05;23.05;;;;;;;-5.48;90.23;101635.72;5085938;28;20055;-57
2021/12/12 05:51:34;;;;;;;57.78;23.88;;;;;;;-5.45;90.35;101638.47;5083582;28;20054;-59
2021/12/12 05:54:01;;;;;;;58.92;22.58;;;;;;;-5.42;90.50;101640.34;5084710;28;20052;-59
2021/12/12 05:56:31;;;;;;;64.55;24.60;;;;;;;-5.38;90.44;101647.34;5087264;28;20043;-59
2021/12/12 05:58:59;;;;;;;59.83;23.08;;;;;;;-5.37;90.34;101649.09;5085164;28;20060;-59
2021/12/12 06:01:29;;;;;;;66.90;25.27;;;;;;;-5.37;90.21;101648.22;5085906;28;20070;-57
2021/12/12 06:03:57;;;;;;;62.13;23.10;;;;;;;-5.40;90.22;101647.25;5086426;28;20052;-60
2021/12/12 06:06:27;;;;;;;60.50;24.17;;;;;;;-5.42;90.18;101645.38;5090311;28;20079;-59
2021/12/12 06:08:58;;;;;;;57.50;22.90;;;;;;;-5.43;89.88;101654.63;5089722;28;20412;-59
2021/12/12 06:11:28;;;;;;;55.70;22.35;;;;;;;-5.48;89.57;101652.53;5088510;28;20040;-59
2021/12/12 06:13:56;;;;;;;61.58;23.23;;;;;;;-5.49;89.30;101653.31;5087368;28;20052;-59
2021/12/12 06:16:24;;;;;;;55.40;24.10;;;;;;;-5.54;89.23;101649.59;5086370;28;20044;-59
2021/12/12 06:18:56;;;;;;;57.90;23.10;;;;;;;-5.58;89.21;101660.25;5085232;28;20044;-57
2021/12/12 06:21:24;;;;;;;62.00;23.20;;;;;;;-5.62;89.13;101658.28;5085651;28;20048;-58
2021/12/12 06:23:52;;;;;;;58.90;24.75;;;;;;;-5.64;89.12;101662.34;5085568;28;20044;-58
2021/12/12 06:26:21;;;;;;;59.40;23.73;;;;;;;-5.67;89.18;101657.06;5084602;28;20052;-59
2021/12/12 06:28:50;;;;;;;56.88;25.33;;;;;;;-5.69;89.37;101658.59;5084707;28;20043;-59
2021/12/12 06:31:18;;;;;;;61.88;23.92;;;;;;;-5.68;89.67;101655.31;5086559;28;20554;-57
2021/12/12 06:33:45;;;;;;;55.85;22.25;;;;;;;-5.65;89.83;101651.34;5084895;28;20087;-57
2021/12/12 06:36:15;;;;;;;63.03;25.10;;;;;;;-5.62;89.67;101640.59;5090859;28;20671;-58
2021/12/12 06:38:45;;;;;;;61.10;25.02;;;;;;;-5.63;89.77;101654.88;5087665;28;20067;-60
2021/12/12 06:41:13;;;;;;;64.53;27.08;;;;;;;-5.67;89.60;101652.03;5085215;28;20047;-59
2021/12/12 06:43:43;;;;;;;65.30;24.23;;;;;;;-5.72;89.75;101655.09;5084615;28;20051;-57
2021/12/12 06:46:11;;;;;;;70.35;25.83;;;;;;;-5.72;89.90;101654.22;5085464;28;20040;-57
2021/12/12 06:48:39;;;;;;;63.63;24.40;;;;;;;-5.69;90.02;101659.50;5086702;28;20056;-57
2021/12/12 06:51:07;;;;;;;63.70;25.95;;;;;;;-5.66;89.76;101658.81;5087828;28;20052;-60
2021/12/12 06:53:38;;;;;;;65.15;25.27;;;;;;;-5.66;89.61;101653.78;5094194;28;20036;-58
2021/12/12 06:56:08;;;;;;;66.55;25.42;;;;;;;-5.66;89.40;101658.81;5088840;28;20047;-58
2021/12/12 06:58:36;;;;;;;71.00;25.67;;;;;;;-5.68;89.39;101665.41;5087896;28;20497;-59
2021/12/12 07:01:09;;;;;;;72.05;28.70;;;;;;;-5.71;89.56;101678.72;5088130;28;20093;-59
2021/12/12 07:03:37;;;;;;;63.45;25.67;;;;;;;-5.73;89.37;101677.69;5087301;28;20075;-58
2021/12/12 07:06:04;;;;;;;64.93;26.67;;;;;;;-5.75;89.39;101670.00;5087168;28;20109;-60
2021/12/12 07:08:34;;;;;;;65.05;24.80;;;;;;;-5.73;89.39;101677.69;5087322;28;20047;-58
2021/12/12 07:11:02;;;;;;;68.43;26.23;;;;;;;-5.74;89.52;101675.94;5088818;28;20067;-57
2021/12/12 07:13:31;;;;;;;64.32;26.02;;;;;;;-5.70;89.59;101677.06;5087431;28;20496;-57
2021/12/12 07:16:01;;;;;;;55.70;24.50;;;;;;;-5.69;89.49;101673.75;5090434;28;20056;-59
2021/12/12 07:18:32;;;;;;;74.38;26.35;;;;;;;-5.66;89.47;101673.97;5085855;28;20154;-61
2021/12/12 07:21:03;;;;;;;75.93;27.52;;;;;;;-5.66;89.43;101679.91;5087219;28;20454;-59
2021/12/12 07:23:30;;;;;;;66.60;26.27;;;;;;;-5.64;89.49;101677.50;5085479;28;20756;-59
2021/12/12 07:26:00;;;;;;;66.25;25.17;;;;;;;-5.64;89.59;101680.91;5089221;28;20076;-57
2021/12/12 07:28:29;;;;;;;80.47;26.95;;;;;;;-5.63;89.55;101691.88;5084462;28;20047;-58
2021/12/12 07:30:59;;;;;;;66.72;26.25;;;;;;;-5.61;89.83;101682.75;5089762;28;20479;-57
2021/12/12 07:33:30;;;;;;;67.55;26.30;;;;;;;-5.59;89.75;101682.09;5087030;28;20499;-58
2021/12/12 07:36:00;;;;;;;64.82;25.35;;;;;;;-5.55;89.86;101685.72;5085028;28;20060;-59
2021/12/12 07:38:29;;;;;;;64.78;25.60;;;;;;;-5.54;89.96;101687.47;5085027;28;20070;-60
2021/12/12 07:40:58;;;;;;;66.00;27.15;;;;;;;-5.50;90.25;101686.91;5085034;28;20123;-58
2021/12/12 07:43:27;;;;;;;64.38;27.15;;;;;;;-5.47;90.42;101684.63;5087276;28;20409;-58
2021/12/12 07:45:55;;;;;;;65.32;26.40;;;;;;;-5.40;90.37;101689.31;5087639;28;20461;-58
2021/12/12 07:48:22;;;;;;;68.75;26.65;;;;;;;-5.35;90.46;101693.06;5087839;28;20051;-57
2021/12/12 07:50:53;;;;;;;62.17;24.95;;;;;;;-5.31;90.42;101695.03;5083553;28;20060;-58
2021/12/12 07:53:23;;;;;;;68.65;27.30;;;;;;;-5.25;90.36;101695.44;5087966;28;20417;-58
2021/12/12 07:55:51;;;;;;;67.38;27.52;;;;;;;-5.19;90.19;101700.09;5088516;28;20685;-59
2021/12/12 07:58:18;;;;;;;81.78;30.30;;;;;;;-5.17;90.22;101699.44;5088337;28;20047;-57
2021/12/12 08:00:48;;;;;;;77.40;28.17;;;;;;;-5.12;90.30;101694.69;5088748;28;20057;-61
2021/12/12 08:03:16;;;;;;;77.13;27.95;;;;;;;-5.06;90.29;101694.22;5086942;28;20055;-59
2021/12/12 08:05:44;;;;;;;68.57;26.80;;;;;;;-5.02;90.48;101693.66;5084303;28;20043;-58
2021/12/12 08:08:14;;;;;;;76.28;27.52;;;;;;;-4.97;90.27;101694.84;5084768;28;20109;-60
2021/12/12 08:10:45;;;;;;;72.03;28.10;;;;;;;-4.93;90.28;101694.28;5085984;28;20466;-59
2021/12/12 08:13:14;;;;;;;79.82;30.95;;;;;;;-4.89;90.41;101696.25;5086594;28;21781;-57
2021/12/12 08:15:43;;;;;;;71.63;27.88;;;;;;;-4.84;90.36;101694.94;5090300;28;20044;-60
2021/12/12 08:18:14;;;;;;;70.97;27.30;;;;;;;-4.80;90.48;101691.81;5087644;28;20542;-56
2021/12/12 08:20:44;;;;;;;70.68;28.02;;;;;;;-4.77;90.49;101702.16;5087768;28;20108;-58
2021/12/12 08:23:13;;;;;;;74.22;28.48;;;;;;;-4.70;90.51;101694.22;5089010;28;20070;-58
2021/12/12 08:25:41;;;;;;;65.80;26.13;;;;;;;-4.64;90.43;101692.13;5086096;28;20044;-59
2021/12/12 08:28:09;;;;;;;70.18;27.08;;;;;;;-4.61;90.59;101714.22;5088181;28;20051;-59
2021/12/12 08:30:37;;;;;;;64.28;23.92;;;;;;;-4.58;90.47;101709.38;5085123;28;20044;-59
2021/12/12 08:33:05;;;;;;;74.13;27.63;;;;;;;-4.51;90.35;101711.53;5086938;28;20137;-60
2021/12/12 08:35:33;;;;;;;65.75;27.98;;;;;;;-4.47;90.36;101709.31;5086309;28;20075;-60
2021/12/12 08:38:02;;;;;;;73.63;26.38;;;;;;;-4.40;90.11;101714.78;5086310;28;20083;-60
2021/12/12 08:40:33;;;;;;;73.30;27.88;;;;;;;-4.35;89.78;101713.44;5087067;28;20051;-60
2021/12/12 08:43:01;;;;;;;70.95;26.52;;;;;;;-4.33;89.76;101709.34;5087808;28;20058;-58
2021/12/12 08:45:31;;;;;;;67.97;25.35;;;;;;;-4.33;89.84;101702.63;5086851;28;20050;-60
2021/12/12 08:48:01;;;;;;;70.20;26.88;;;;;;;-4.27;90.02;101702.16;5085046;28;20733;-61
2021/12/12 08:50:33;;;;;;;66.65;24.67;;;;;;;-4.21;90.46;101707.63;5085870;28;20117;-58
2021/12/12 08:53:01;;;;;;;64.55;27.60;;;;;;;-4.15;90.05;101703.88;5086926;28;20043;-59
2021/12/12 08:55:35;;;;;;;65.38;26.55;;;;;;;-4.06;90.32;101705.25;5087153;28;20071;-58
2021/12/12 08:58:14;;;;;;;74.55;29.30;;;;;;;-4.01;90.20;101707.31;5084300;28;20052;-63
2021/12/12 09:00:46;;;;;;;71.80;26.88;;;;;;;-3.95;89.90;101702.63;5083150;28;20485;-60
2021/12/12 09:03:17;;;;;;;61.65;27.17;;;;;;;-3.88;89.90;101693.78;5085383;28;20935;-58
2021/12/12 09:05:45;;;;;;;68.63;27.52;;;;;;;-3.87;90.20;101691.34;5087036;28;20055;-58
2021/12/12 09:08:18;;;;;;;73.68;30.75;;;;;;;-3.83;90.17;101697.47;5085333;28;20469;-58
2021/12/12 09:10:52;;;;;;;77.80;28.05;;;;;;;-3.81;90.31;101694.28;5085421;28;20068;-59
2021/12/12 09:13:23;;;;;;;73.15;28.80;;;;;;;-3.77;90.12;101697.88;5084856;28;20102;-58
2021/12/12 09:15:57;;;;;;;71.95;28.13;;;;;;;-3.75;89.97;101691.25;5083574;28;20044;-59
2021/12/12 09:18:32;;;;;;;67.53;27.13;;;;;;;-3.69;90.15;101696.72;5084698;28;20040;-58
2021/12/12 09:21:06;;;;;;;74.30;29.67;;;;;;;-3.64;90.11;101690.31;5086154;28;20093;-59
2021/12/12 09:23:38;;;;;;;77.13;29.55;;;;;;;-3.59;90.44;101688.06;5085066;28;20067;-58
2021/12/12 09:26:12;;;;;;;69.78;26.50;;;;;;;-3.55;89.99;101690.00;5086046;28;20089;-58
2021/12/12 09:28:41;;;;;;;65.28;26.35;;;;;;;-3.49;90.42;101690.41;5089506;28;20055;-57
2021/12/12 09:31:12;;;;;;;81.00;32.85;;;;;;;-3.43;90.25;101700.91;5086489;28;20482;-59
2021/12/12 09:33:47;;;;;;;72.20;29.77;;;;;;;-3.39;90.18;101691.84;5085022;28;20492;-57
2021/12/12 09:36:18;;;;;;;68.82;27.80;;;;;;;-3.34;90.24;101696.44;5083039;28;20149;-58
2021/12/12 09:38:50;;;;;;;67.38;27.40;;;;;;;-3.27;90.07;101700.22;5085555;28;20059;-58
2021/12/12 09:41:42;;;;;;;70.22;29.40;;;;;;;-3.23;90.15;101687.81;5085129;28;21936;-58
2021/12/12 09:44:42;;;;;;;104.30;39.67;;;;;;;-3.20;90.00;101688.00;5085137;28;20459;-59
2021/12/12 09:47:28;;;;;;;110.85;43.42;;;;;;;-3.17;90.33;101693.28;5055589;28;20051;-59
2021/12/12 09:53:24;;;;;;;65.43;28.05;;;;;;;-3.07;90.40;101701.47;5087011;28;20463;-58
2021/12/12 09:56:05;;;;;;;;;;;;;;;-3.01;90.12;101697.66;5083133;28;20044;-59
2021/12/12 09:59:04;;;;;;;75.82;28.85;;;;;;;-2.95;89.96;101702.22;5084272;28;20311;-58
2021/12/12 10:01:41;;;;;;;74.00;29.63;;;;;;;-2.86;89.91;101697.72;5083643;28;20063;-59
2021/12/12 10:04:28;;;;;;;80.10;32.78;;;;;;;-2.85;89.77;101689.31;5079864;28;20465;-58
2021/12/12 10:07:13;;;;;;;92.07;37.20;;;;;;;-2.78;90.21;101688.00;5082133;28;20058;-57
2021/12/12 10:09:57;;;;;;;77.57;31.45;;;;;;;-2.73;89.87;101692.59;5083834;28;20064;-59
2021/12/12 10:12:31;;;;;;;91.70;37.75;;;;;;;-2.68;89.95;101696.28;5080930;28;20058;-60
2021/12/12 10:15:11;;;;;;;92.15;39.80;;;;;;;-2.64;89.91;101695.66;5082748;28;20044;-58
2021/12/12 10:17:50;;;;;;;80.38;32.33;;;;;;;-2.60;89.93;101702.72;5083928;28;20040;-58
2021/12/12 10:20:33;;;;;;;71.30;30.13;;;;;;;-2.56;89.87;101697.03;5079048;28;20135;-58
2021/12/12 10:23:20;;;;;;;94.72;37.42;;;;;;;-2.46;90.03;101700.13;5083653;28;20048;-58
2021/12/12 10:26:03;;;;;;;95.65;41.67;;;;;;;-2.40;90.29;101695.41;5087681;28;20105;-57
2021/12/12 10:28:44;;;;;;;88.32;36.53;;;;;;;-2.35;90.62;101694.88;5087069;28;20753;-58
2021/12/12 10:31:26;;;;;;;104.60;43.30;;;;;;;-2.29;90.03;101696.91;5086578;28;20058;-59
2021/12/12 10:34:02;;;;;;;82.15;38.03;;;;;;;-2.21;90.33;101695.69;5090038;28;20039;-57
2021/12/12 10:36:34;;;;;;;;;;;;;;;-2.15;90.09;101698.56;5089422;28;20056;-59
2021/12/12 10:39:12;;;;;;;73.75;34.45;;;;;;;-2.08;90.44;101694.72;5088269;28;19951;-58
2021/12/12 10:41:47;;;;;;;87.70;37.42;;;;;;;-2.02;90.01;101690.91;5087793;28;20518;-60
2021/12/12 10:44:24;;;;;;;68.20;31.08;;;;;;;-1.93;90.49;101688.88;5080741;28;20397;-59
2021/12/12 10:46:59;;;;;;;68.55;30.77;;;;;;;-1.84;90.27;101695.25;5082290;28;20051;-57
2021/12/12 10:49:32;;;;;;;71.82;30.38;;;;;;;-1.78;90.33;101690.53;5083731;28;20427;-58
2021/12/12 10:52:07;;;;;;;77.10;31.30;;;;;;;-1.72;90.49;101695.94;5089296;28;20509;-58
2021/12/12 10:54:42;;;;;;;78.38;32.25;;;;;;;-1.65;90.63;101695.50;5083363;28;20048;-59
2021/12/12 10:57:14;;;;;;;65.43;29.23;;;;;;;-1.61;90.54;101692.34;5086937;28;20055;-58
2021/12/12 10:59:47;;;;;;;69.03;31.30;;;;;;;-1.55;90.37;101689.28;5086786;28;20290;-58
2021/12/12 11:02:24;;;;;;;77.43;31.00;;;;;;;-1.50;90.65;101685.34;5085410;28;20143;-58
2021/12/12 11:04:57;;;;;;;74.90;30.35;;;;;;;-1.42;90.61;101682.41;5084152;28;20301;-57
2021/12/12 11:07:27;;;;;;;80.70;32.72;;;;;;;-1.33;90.75;101692.22;5083716;28;20072;-58
2021/12/12 11:10:05;;;;;;;65.20;29.48;;;;;;;-1.24;90.87;101687.63;5082271;28;20040;-57
2021/12/12 11:12:42;;;;;;;66.68;29.38;;;;;;;-1.09;91.13;101682.47;5085652;28;20155;-57
2021/12/12 11:15:14;;;;;;;61.90;27.65;;;;;;;-0.90;91.27;101684.34;5083282;28;20059;-56
2021/12/12 11:17:47;;;;;;;69.72;31.08;;;;;;;-0.75;91.13;101675.84;5085578;28;20052;-57
2021/12/12 11:20:19;;;;;;;62.53;27.83;;;;;;;-0.61;91.11;101673.13;5082230;28;20070;-56
2021/12/12 11:22:52;;;;;;;65.97;28.20;;;;;;;-0.49;90.73;101673.78;5087492;28;20048;-55
2021/12/12 11:25:25;;;;;;;61.30;27.52;;;;;;;-0.39;90.67;101670.91;5089407;28;20098;-55
2021/12/12 11:27:58;;;;;;;65.18;27.98;;;;;;;-0.29;90.61;101669.69;5083929;28;20053;-56
2021/12/12 11:30:29;;;;;;;59.85;25.50;;;;;;;-0.22;89.82;101675.16;5083718;28;20039;-57
2021/12/12 11:33:01;;;;;;;60.90;26.52;;;;;;;-0.17;89.61;101673.72;5084126;28;20048;-55
2021/12/12 11:35:29;;;;;;;58.30;25.05;;;;;;;-0.10;89.25;101677.44;5083003;28;20056;-56
2021/12/12 11:38:02;;;;;;;54.53;25.02;;;;;;;-0.06;89.08;101685.31;5091690;28;20052;-55
2021/12/12 11:40:34;;;;;;;54.40;23.73;;;;;;;-0.05;88.75;101679.44;5089441;28;20507;-55
2021/12/12 11:43:11;;;;;;;57.75;24.48;;;;;;;-0.03;88.66;101682.91;5078795;28;20051;-58
2021/12/12 11:45:41;;;;;;;50.63;23.27;;;;;;;-0.01;88.35;101686.41;5086913;28;20074;-57